Wetterdaten: Woche 24.06.02 - 30.06.02 (KW26)
Datum Zeit Temperatur Luftfeuchte Luftdruck Regenmenge Wind Richtung Taupunkt Windchill
24.06.2002 00:00 23.5 C 69 % 1016.4 hPa 0.0 l/m 0.5 km/h (0 Bft) NW 17.4 C 23.5 C
24.06.2002 01:00 22.4 C 73 % 1017.0 hPa 0.0 l/m 0.0 km/h (0 Bft) N 17.3 C 22.4 C
24.06.2002 02:00 20.8 C 83 % 1016.8 hPa 6.3 l/m 1.5 km/h (1 Bft) NW 17.7 C 20.8 C
24.06.2002 03:00 19.3 C 97 % 1017.7 hPa 1.2 l/m 1.5 km/h (1 Bft) O 18.7 C 19.3 C
24.06.2002 04:00 19.0 C 99 % 1018.1 hPa 7.8 l/m 0.3 km/h (0 Bft) N 18.9 C 19.0 C
24.06.2002 05:00 18.8 C 100 % 1018.4 hPa 0.9 l/m 2.5 km/h (1 Bft) SO 18.8 C 18.8 C
24.06.2002 06:00 18.6 C 100 % 1018.9 hPa 0.6 l/m 1.8 km/h (1 Bft) SO 18.6 C 18.6 C
24.06.2002 07:00 18.6 C 100 % 1019.8 hPa 0.0 l/m 3.9 km/h (1 Bft) O-SO 18.6 C 18.6 C
24.06.2002 08:00 18.7 C 100 % 1020.1 hPa 0.6 l/m 7.8 km/h (2 Bft) SO 18.7 C 18.7 C
24.06.2002 09:00 19.0 C 99 % 1020.9 hPa 0.3 l/m 7.3 km/h (2 Bft) SO 18.7 C 19.0 C
24.06.2002 10:00 19.2 C 98 % 1020.1 hPa 0.0 l/m 3.1 km/h (1 Bft) SO 18.8 C 19.2 C
24.06.2002 11:00 19.5 C 96 % 1020.9 hPa 0.3 l/m 1.9 km/h (1 Bft) W-NW 18.8 C 19.5 C
24.06.2002 12:00 19.8 C 93 % 1021.1 hPa 0.0 l/m 3.7 km/h (1 Bft) NW 18.6 C 19.8 C
24.06.2002 13:00 19.5 C 89 % 1021.7 hPa 0.0 l/m 0.4 km/h (0 Bft) N-NO 17.6 C 19.5 C
24.06.2002 14:00 18.9 C 93 % 1022.2 hPa 0.3 l/m 0.1 km/h (0 Bft) N 17.7 C 18.9 C
24.06.2002 15:00 18.6 C 98 % 1022.2 hPa 1.2 l/m 0.0 km/h (0 Bft) N 18.3 C 18.6 C
24.06.2002 16:00 18.2 C 100 % 1023.2 hPa 0.3 l/m 0.0 km/h (0 Bft) N 18.2 C 18.2 C
24.06.2002 17:00 18.4 C 100 % 1023.2 hPa 0.0 l/m 0.0 km/h (0 Bft) N 18.3 C 18.4 C
24.06.2002 18:00 18.3 C 99 % 1023.2 hPa 0.0 l/m 0.0 km/h (0 Bft) N 18.1 C 18.3 C
24.06.2002 19:00 18.2 C 97 % 1023.2 hPa 0.0 l/m 0.0 km/h (0 Bft) N 17.7 C 18.2 C
24.06.2002 20:00 18.0 C 98 % 1024.1 hPa 0.0 l/m 0.0 km/h (0 Bft) N 17.8 C 18.0 C
24.06.2002 21:00 17.7 C 100 % 1024.2 hPa 0.0 l/m 0.1 km/h (0 Bft) SO 17.7 C 17.7 C
24.06.2002 22:00 17.7 C 100 % 1024.2 hPa 0.0 l/m 0.0 km/h (0 Bft) N 17.7 C 17.7 C
24.06.2002 23:00 17.7 C 100 % 1024.2 hPa 0.0 l/m 0.6 km/h (0 Bft) O-SO 17.7 C 17.7 C
25.06.2002 00:00 17.2 C 100 % 1024.2 hPa 0.0 l/m 0.0 km/h (0 Bft) N 17.2 C 17.2 C
25.06.2002 01:00 17.4 C 100 % 1024.2 hPa 0.0 l/m 0.0 km/h (0 Bft) N 17.4 C 17.4 C
25.06.2002 02:00 17.1 C 99 % 1024.2 hPa 0.0 l/m 0.6 km/h (0 Bft) N-NO 17.0 C 17.1 C
25.06.2002 03:00 15.8 C 90 % 1024.1 hPa 0.0 l/m 0.2 km/h (0 Bft) N 14.2 C 15.8 C
25.06.2002 04:00 14.5 C 89 % 1023.5 hPa 0.0 l/m 0.0 km/h (0 Bft) N 12.7 C 14.5 C
25.06.2002 05:00 13.5 C 94 % 1024.2 hPa 0.0 l/m 0.7 km/h (0 Bft) O 12.5 C 13.5 C
25.06.2002 06:00 14.0 C 92 % 1024.2 hPa 0.0 l/m 0.0 km/h (0 Bft) N 12.7 C 14.0 C
25.06.2002 07:00 14.9 C 85 % 1024.2 hPa 0.0 l/m 0.8 km/h (0 Bft) W-NW 12.4 C 14.9 C
25.06.2002 08:00 15.7 C 79 % 1024.2 hPa 0.0 l/m 0.7 km/h (0 Bft) W-NW 12.1 C 15.7 C
25.06.2002 09:00 17.4 C 71 % 1024.2 hPa 0.0 l/m 1.9 km/h (1 Bft) W-NW 12.1 C 17.4 C
25.06.2002 10:00 19.9 C 62 % 1024.2 hPa 0.0 l/m 6.2 km/h (2 Bft) O-SO 12.3 C 19.9 C
25.06.2002 11:00 21.6 C 50 % 1024.2 hPa 0.0 l/m 8.2 km/h (2 Bft) O 10.6 C 21.6 C
25.06.2002 12:00 22.9 C 47 % 1024.2 hPa 0.0 l/m 6.4 km/h (2 Bft) O 11.0 C 22.9 C
25.06.2002 13:00 23.4 C 47 % 1024.2 hPa 0.0 l/m 4.8 km/h (1 Bft) O-SO 11.3 C 23.4 C
25.06.2002 14:00 24.6 C 44 % 1024.2 hPa 0.0 l/m 8.9 km/h (2 Bft) O 11.5 C 24.6 C
25.06.2002 15:00 25.5 C 41 % 1023.3 hPa 0.0 l/m 6.8 km/h (2 Bft) O 11.1 C 25.5 C
25.06.2002 16:00 25.7 C 41 % 1023.2 hPa 0.0 l/m 8.9 km/h (2 Bft) O-SO 11.3 C 25.7 C
25.06.2002 17:00 24.5 C 44 % 1023.1 hPa 0.0 l/m 8.5 km/h (2 Bft) O-SO 11.4 C 24.5 C
25.06.2002 18:00 25.1 C 43 % 1022.4 hPa 0.0 l/m 8.4 km/h (2 Bft) O-SO 11.5 C 25.1 C
25.06.2002 19:00 23.6 C 48 % 1022.4 hPa 0.0 l/m 3.3 km/h (1 Bft) O-SO 11.9 C 23.6 C
25.06.2002 20:00 22.1 C 56 % 1023.2 hPa 0.0 l/m 1.9 km/h (1 Bft) O-SO 12.9 C 22.1 C
25.06.2002 21:00 19.5 C 62 % 1023.2 hPa 0.0 l/m 0.7 km/h (0 Bft) O-SO 12.1 C 19.5 C
25.06.2002 22:00 17.6 C 73 % 1023.5 hPa 0.0 l/m 0.0 km/h (0 Bft) N 12.6 C 17.6 C
25.06.2002 23:00 16.4 C 77 % 1024.2 hPa 0.0 l/m 0.0 km/h (0 Bft) N 12.3 C 16.4 C
26.06.2002 00:00 15.5 C 81 % 1024.2 hPa 0.0 l/m 0.0 km/h (0 Bft) N 12.3 C 15.5 C
26.06.2002 01:00 13.8 C 89 % 1024.1 hPa 0.0 l/m 0.0 km/h (0 Bft) N 12.1 C 13.8 C
26.06.2002 02:00 13.2 C 91 % 1023.4 hPa 0.0 l/m 0.1 km/h (0 Bft) N 11.8 C 13.2 C
26.06.2002 03:00 12.1 C 95 % 1023.2 hPa 0.0 l/m 0.0 km/h (0 Bft) N 11.3 C 12.1 C
26.06.2002 04:00 11.2 C 97 % 1023.4 hPa 0.0 l/m 1.6 km/h (1 Bft) O 10.7 C 11.2 C
26.06.2002 05:00 10.5 C 99 % 1023.2 hPa 0.0 l/m 0.2 km/h (0 Bft) N 10.3 C 10.5 C
26.06.2002 06:00 11.3 C 95 % 1023.2 hPa 0.0 l/m 0.5 km/h (0 Bft) O-SO 10.6 C 11.3 C
26.06.2002 07:00 12.5 C 91 % 1023.2 hPa 0.0 l/m 0.0 km/h (0 Bft) N 11.1 C 12.5 C
26.06.2002 08:00 15.1 C 80 % 1023.2 hPa 0.0 l/m 0.1 km/h (0 Bft) N 11.5 C 15.1 C
26.06.2002 09:00 17.8 C 67 % 1022.5 hPa 0.0 l/m 0.5 km/h (0 Bft) W-NW 11.6 C 17.8 C
26.06.2002 10:00 20.3 C 58 % 1022.2 hPa 0.0 l/m 1.4 km/h (1 Bft) NW 11.8 C 20.3 C
26.06.2002 11:00 22.7 C 53 % 1022.2 hPa 0.0 l/m 2.5 km/h (1 Bft) O-SO 12.4 C 22.7 C
26.06.2002 12:00 23.9 C 46 % 1021.8 hPa 0.0 l/m 2.8 km/h (1 Bft) O 11.4 C 23.9 C
26.06.2002 13:00 25.0 C 40 % 1021.2 hPa 0.0 l/m 3.5 km/h (1 Bft) W-NW 10.3 C 25.0 C
26.06.2002 14:00 26.3 C 36 % 1021.1 hPa 0.0 l/m 2.7 km/h (1 Bft) W-NW 10.1 C 26.3 C
26.06.2002 15:00 27.3 C 33 % 1020.1 hPa 0.0 l/m 2.7 km/h (1 Bft) NW 9.3 C 27.3 C
26.06.2002 16:00 27.8 C 34 % 1020.1 hPa 0.0 l/m 3.1 km/h (1 Bft) W-NW 10.5 C 27.8 C
26.06.2002 17:00 27.9 C 33 % 1019.3 hPa 0.0 l/m 12.9 km/h (3 Bft) W-NW 10.2 C 27.9 C
26.06.2002 18:00 27.4 C 37 % 1019.0 hPa 0.0 l/m 7.9 km/h (2 Bft) W 11.3 C 27.4 C
26.06.2002 19:00 26.0 C 37 % 1019.0 hPa 0.0 l/m 5.2 km/h (1 Bft) W 10.2 C 26.0 C
26.06.2002 20:00 24.2 C 46 % 1019.0 hPa 0.0 l/m 1.6 km/h (1 Bft) W-SW 11.7 C 24.2 C
26.06.2002 21:00 21.4 C 57 % 1018.3 hPa 0.0 l/m 0.0 km/h (0 Bft) N 12.5 C 21.4 C
26.06.2002 22:00 18.5 C 66 % 1018.9 hPa 0.0 l/m 0.6 km/h (0 Bft) O 11.9 C 18.5 C
26.06.2002 23:00 16.4 C 78 % 1019.0 hPa 0.0 l/m 3.3 km/h (1 Bft) O-SO 12.5 C 16.4 C
27.06.2002 00:00 14.9 C 87 % 1018.8 hPa 0.0 l/m 2.8 km/h (1 Bft) O-SO 12.7 C 14.9 C
27.06.2002 01:00 14.0 C 90 % 1018.2 hPa 0.0 l/m 1.8 km/h (1 Bft) O-SO 12.3 C 14.0 C
27.06.2002 02:00 13.4 C 94 % 1018.0 hPa 0.0 l/m 3.7 km/h (1 Bft) O-SO 12.5 C 13.4 C
27.06.2002 03:00 12.7 C 96 % 1018.0 hPa 0.0 l/m 2.4 km/h (1 Bft) O-SO 12.1 C 12.7 C
27.06.2002 04:00 12.3 C 98 % 1018.0 hPa 0.0 l/m 0.0 km/h (0 Bft) N 11.9 C 12.3 C
27.06.2002 05:00 11.9 C 99 % 1017.2 hPa 0.0 l/m 0.2 km/h (0 Bft) O-SO 11.7 C 11.9 C
27.06.2002 06:00 12.5 C 97 % 1017.0 hPa 0.0 l/m 0.6 km/h (0 Bft) O-SO 12.1 C 12.5 C
27.06.2002 07:00 13.8 C 92 % 1017.0 hPa 0.0 l/m 0.0 km/h (0 Bft) N 12.5 C 13.8 C
27.06.2002 08:00 16.1 C 82 % 1017.0 hPa 0.0 l/m 1.4 km/h (1 Bft) O-SO 13.0 C 16.1 C
27.06.2002 09:00 18.9 C 69 % 1017.0 hPa 0.0 l/m 3.0 km/h (1 Bft) SO 13.0 C 18.9 C
27.06.2002 10:00 22.0 C 58 % 1016.6 hPa 0.0 l/m 5.0 km/h (1 Bft) O-SO 13.2 C 22.0 C
27.06.2002 11:00 23.8 C 44 % 1015.9 hPa 0.0 l/m 12.6 km/h (3 Bft) W-NW 10.8 C 23.8 C
27.06.2002 12:00 24.9 C 42 % 1015.5 hPa 0.0 l/m 21.4 km/h (4 Bft) NW 11.0 C 24.9 C
27.06.2002 13:00 25.6 C 41 % 1014.8 hPa 0.0 l/m 21.2 km/h (4 Bft) W-NW 11.3 C 25.6 C
27.06.2002 14:00 25.5 C 40 % 1013.9 hPa 0.0 l/m 17.4 km/h (3 Bft) NW 11.1 C 25.5 C
27.06.2002 15:00 25.9 C 39 % 1013.9 hPa 0.0 l/m 16.1 km/h (3 Bft) NW 11.0 C 25.9 C
27.06.2002 16:00 24.6 C 41 % 1013.3 hPa 0.0 l/m 16.7 km/h (3 Bft) NW 10.4 C 24.6 C
27.06.2002 17:00 24.8 C 42 % 1012.5 hPa 0.0 l/m 20.4 km/h (4 Bft) NW 11.0 C 24.8 C
27.06.2002 18:00 23.4 C 46 % 1011.8 hPa 0.0 l/m 20.0 km/h (4 Bft) NW 11.2 C 23.4 C
27.06.2002 19:00 21.6 C 63 % 1012.2 hPa 0.0 l/m 5.7 km/h (1 Bft) O-SO 14.2 C 21.6 C
27.06.2002 20:00 20.7 C 67 % 1011.8 hPa 0.0 l/m 2.8 km/h (1 Bft) O-SO 14.2 C 20.7 C
27.06.2002 21:00 19.8 C 70 % 1012.2 hPa 0.0 l/m 3.7 km/h (1 Bft) O-SO 14.0 C 19.8 C
27.06.2002 22:00 19.0 C 78 % 1012.8 hPa 0.0 l/m 1.2 km/h (1 Bft) W 15.1 C 19.0 C
27.06.2002 23:00 18.2 C 78 % 1012.0 hPa 0.0 l/m 2.3 km/h (1 Bft) O-SO 14.4 C 18.2 C
28.06.2002 00:00 18.1 C 81 % 1012.6 hPa 0.0 l/m 0.0 km/h (0 Bft) N 14.7 C 18.1 C
28.06.2002 01:00 17.6 C 88 % 1012.3 hPa 0.0 l/m 0.5 km/h (0 Bft) SO 15.6 C 17.6 C
28.06.2002 02:00 16.8 C 94 % 1013.0 hPa 0.0 l/m 6.7 km/h (2 Bft) O-SO 15.9 C 16.8 C
28.06.2002 03:00 16.2 C 96 % 1011.8 hPa 0.3 l/m 0.9 km/h (0 Bft) O-SO 15.6 C 16.2 C
28.06.2002 04:00 15.5 C 95 % 1012.7 hPa 0.0 l/m 0.2 km/h (0 Bft) N 14.7 C 15.5 C
28.06.2002 05:00 15.2 C 95 % 1012.8 hPa 0.0 l/m 0.0 km/h (0 Bft) N 14.3 C 15.2 C
28.06.2002 06:00 15.2 C 94 % 1012.8 hPa 0.0 l/m 0.2 km/h (0 Bft) O-SO 14.3 C 15.2 C
28.06.2002 07:00 15.3 C 93 % 1013.0 hPa 0.3 l/m 2.0 km/h (1 Bft) O-SO 14.1 C 15.3 C
28.06.2002 08:00 15.1 C 92 % 1013.9 hPa 0.0 l/m 0.5 km/h (0 Bft) W-NW 13.9 C 15.1 C
28.06.2002 09:00 15.4 C 80 % 1014.9 hPa 0.0 l/m 1.5 km/h (1 Bft) NW 11.9 C 15.4 C
28.06.2002 10:00 16.6 C 70 % 1014.9 hPa 0.0 l/m 4.6 km/h (1 Bft) NW 11.0 C 16.6 C
28.06.2002 11:00 18.0 C 61 % 1015.5 hPa 0.0 l/m 8.3 km/h (2 Bft) NW 10.3 C 18.0 C
28.06.2002 12:00 18.6 C 49 % 1015.9 hPa 0.0 l/m 21.1 km/h (4 Bft) NW 7.7 C 18.6 C
28.06.2002 13:00 19.4 C 44 % 1015.9 hPa 0.0 l/m 19.8 km/h (3 Bft) W-NW 6.9 C 19.4 C
28.06.2002 14:00 19.5 C 40 % 1015.9 hPa 0.0 l/m 25.5 km/h (4 Bft) W-NW 5.7 C 19.5 C
28.06.2002 15:00 20.4 C 36 % 1017.0 hPa 0.0 l/m 20.9 km/h (4 Bft) NW 5.0 C 20.4 C
28.06.2002 16:00 20.9 C 31 % 1017.0 hPa 0.0 l/m 22.1 km/h (4 Bft) NW 3.0 C 20.9 C
28.06.2002 17:00 21.3 C 34 % 1016.8 hPa 0.0 l/m 20.2 km/h (4 Bft) NW 4.2 C 21.3 C
28.06.2002 18:00 19.8 C 33 % 1018.0 hPa 0.0 l/m 8.9 km/h (2 Bft) NW 3.1 C 19.8 C
28.06.2002 19:00 19.1 C 34 % 1018.3 hPa 0.0 l/m 13.8 km/h (3 Bft) NW 2.6 C 19.1 C
28.06.2002 20:00 18.0 C 44 % 1019.0 hPa 0.0 l/m 5.3 km/h (1 Bft) W-NW 5.4 C 18.0 C
28.06.2002 21:00 15.4 C 57 % 1019.3 hPa 0.0 l/m 1.0 km/h (0 Bft) O-SO 6.8 C 15.4 C
28.06.2002 22:00 12.4 C 72 % 1020.1 hPa 0.0 l/m 2.9 km/h (1 Bft) O-SO 7.4 C 12.4 C
28.06.2002 23:00 11.5 C 79 % 1021.0 hPa 0.0 l/m 5.0 km/h (1 Bft) O-SO 7.9 C 11.5 C
29.06.2002 00:00 11.9 C 78 % 1021.1 hPa 0.0 l/m 4.8 km/h (1 Bft) O-SO 8.2 C 11.9 C
29.06.2002 01:00 11.6 C 80 % 1021.1 hPa 0.0 l/m 1.0 km/h (0 Bft) O-SO 8.3 C 11.6 C
29.06.2002 02:00 10.2 C 88 % 1021.1 hPa 0.0 l/m 1.3 km/h (1 Bft) O-SO 8.3 C 10.2 C
29.06.2002 03:00 8.9 C 93 % 1021.1 hPa 0.0 l/m 0.8 km/h (0 Bft) O-SO 7.8 C 8.9 C
29.06.2002 04:00 7.9 C 95 % 1021.1 hPa 0.0 l/m 1.4 km/h (1 Bft) O-SO 7.2 C 7.7 C
29.06.2002 05:00 7.7 C 98 % 1021.1 hPa 0.0 l/m 3.1 km/h (1 Bft) O-SO 7.3 C 7.6 C
29.06.2002 06:00 8.3 C 96 % 1021.6 hPa 0.0 l/m 0.4 km/h (0 Bft) O-SO 7.6 C 8.3 C
29.06.2002 07:00 9.9 C 87 % 1022.2 hPa 0.0 l/m 0.2 km/h (0 Bft) O-SO 7.8 C 9.9 C
29.06.2002 08:00 11.7 C 75 % 1022.2 hPa 0.0 l/m 0.7 km/h (0 Bft) O-SO 7.4 C 11.7 C
29.06.2002 09:00 13.8 C 70 % 1022.2 hPa 0.0 l/m 1.3 km/h (1 Bft) O-SO 8.4 C 13.8 C
29.06.2002 10:00 16.4 C 56 % 1021.8 hPa 0.0 l/m 3.6 km/h (1 Bft) NW 7.4 C 16.4 C
29.06.2002 11:00 18.0 C 46 % 1021.1 hPa 0.0 l/m 10.4 km/h (2 Bft) NW 6.1 C 18.0 C
29.06.2002 12:00 19.1 C 40 % 1021.1 hPa 0.0 l/m 14.4 km/h (3 Bft) NW 5.1 C 19.1 C
29.06.2002 13:00 20.1 C 36 % 1021.1 hPa 0.0 l/m 11.6 km/h (2 Bft) NW 4.4 C 20.1 C
29.06.2002 14:00 20.8 C 30 % 1021.1 hPa 0.0 l/m 15.0 km/h (3 Bft) NW 2.6 C 20.8 C
29.06.2002 15:00 22.1 C 29 % 1020.4 hPa 0.0 l/m 9.9 km/h (2 Bft) W-NW 3.0 C 22.1 C
29.06.2002 16:00 22.5 C 28 % 1020.1 hPa 0.0 l/m 7.8 km/h (2 Bft) NW 3.2 C 22.5 C
29.06.2002 17:00 22.4 C 28 % 1019.6 hPa 0.0 l/m 8.4 km/h (2 Bft) NW 3.1 C 22.4 C
29.06.2002 18:00 22.2 C 33 % 1019.0 hPa 0.0 l/m 7.0 km/h (2 Bft) NW 5.3 C 22.2 C
29.06.2002 19:00 21.1 C 36 % 1019.0 hPa 0.0 l/m 9.3 km/h (2 Bft) W-NW 5.4 C 21.1 C
29.06.2002 20:00 19.5 C 41 % 1019.0 hPa 0.0 l/m 3.6 km/h (1 Bft) W-NW 5.9 C 19.5 C
29.06.2002 21:00 16.8 C 52 % 1019.0 hPa 0.0 l/m 1.4 km/h (1 Bft) W-NW 6.8 C 16.8 C
29.06.2002 22:00 13.6 C 65 % 1019.0 hPa 0.0 l/m 0.3 km/h (0 Bft) O-SO 7.1 C 13.6 C
29.06.2002 23:00 12.1 C 73 % 1019.0 hPa 0.0 l/m 0.1 km/h (0 Bft) N 7.3 C 12.1 C
30.06.2002 00:00 11.2 C 75 % 1019.0 hPa 0.0 l/m 0.0 km/h (0 Bft) N 6.9 C 11.2 C
30.06.2002 01:00 9.9 C 80 % 1019.0 hPa 0.0 l/m 0.0 km/h (0 Bft) N 6.6 C 9.9 C
30.06.2002 02:00 9.3 C 83 % 1019.0 hPa 0.0 l/m 1.3 km/h (1 Bft) O-SO 6.6 C 9.3 C
30.06.2002 03:00 8.5 C 86 % 1018.1 hPa 0.0 l/m 0.8 km/h (0 Bft) O-SO 6.4 C 8.5 C
30.06.2002 04:00 7.8 C 89 % 1018.0 hPa 0.0 l/m 0.0 km/h (0 Bft) N 6.1 C 7.8 C
30.06.2002 05:00 7.2 C 94 % 1018.3 hPa 0.0 l/m 4.2 km/h (1 Bft) O-SO 6.3 C 6.9 C
30.06.2002 06:00 8.0 C 90 % 1019.0 hPa 0.0 l/m 0.1 km/h (0 Bft) N 6.3 C 8.0 C
30.06.2002 07:00 9.6 C 83 % 1019.0 hPa 0.0 l/m 0.0 km/h (0 Bft) N 6.9 C 9.6 C
30.06.2002 08:00 11.5 C 71 % 1019.0 hPa 0.0 l/m 0.5 km/h (0 Bft) W-NW 6.4 C 11.5 C
30.06.2002 09:00 13.8 C 61 % 1019.0 hPa 0.0 l/m 0.5 km/h (0 Bft) W-SW 6.5 C 13.8 C
30.06.2002 10:00 16.1 C 51 % 1018.5 hPa 0.0 l/m 1.3 km/h (1 Bft) NW 5.8 C 16.1 C
30.06.2002 11:00 18.3 C 45 % 1018.0 hPa 0.0 l/m 2.5 km/h (1 Bft) NW 6.2 C 18.3 C
30.06.2002 12:00 20.5 C 41 % 1018.0 hPa 0.0 l/m 2.9 km/h (1 Bft) O-SO 6.8 C 20.5 C
30.06.2002 13:00 22.2 C 38 % 1017.0 hPa 0.0 l/m 4.8 km/h (1 Bft) NW 7.2 C 22.2 C
30.06.2002 14:00 23.2 C 32 % 1017.0 hPa 0.0 l/m 11.8 km/h (2 Bft) NW 5.4 C 23.2 C
30.06.2002 15:00 23.7 C 31 % 1016.2 hPa 0.0 l/m 12.3 km/h (3 Bft) NW 5.4 C 23.7 C
30.06.2002 16:00 24.6 C 33 % 1015.9 hPa 0.0 l/m 13.7 km/h (3 Bft) NW 7.1 C 24.6 C
30.06.2002 17:00 24.6 C 32 % 1015.9 hPa 0.0 l/m 13.1 km/h (3 Bft) W-NW 6.9 C 24.6 C
30.06.2002 18:00 23.9 C 38 % 1015.7 hPa 0.0 l/m 11.8 km/h (2 Bft) NW 8.8 C 23.9 C
30.06.2002 19:00 22.8 C 42 % 1015.0 hPa 0.0 l/m 14.3 km/h (3 Bft) NW 9.2 C 22.8 C
30.06.2002 20:00 21.4 C 46 % 1015.4 hPa 0.0 l/m 16.4 km/h (3 Bft) NW 9.1 C 21.4 C
30.06.2002 21:00 19.1 C 52 % 1015.7 hPa 0.0 l/m 3.8 km/h (1 Bft) W-NW 9.1 C 19.1 C
30.06.2002 22:00 16.1 C 64 % 1015.9 hPa 0.0 l/m 2.3 km/h (1 Bft) O 9.3 C 16.1 C
30.06.2002 23:00 14.6 C 71 % 1015.9 hPa 0.0 l/m 3.6 km/h (1 Bft) O-SO 9.3 C 14.6 C
Min-Datum _ 30.06.02 29.06.02 27.06.02 - 24.06.02 - 29.06.02 30.06.02
_ Min-Zeit 05:35 14:25 18:00 - 00:13 - 14:25 05:50
Minimum _ 6.9 C 25 % 1011.8 hPa - 0.0 km/h (0 Bft) - -0.3 C 6.1 C
Max-Datum _ 26.06.02 24.06.02 26.06.02 24.06.02 28.06.02 - 24.06.02 26.06.02
_ Max-Zeit 16:46 04:10 04:37 04:04 12:42 - 04:10 16:46
Maximum _ 28.5 C 100 % 1028.5 hPa 7.8 l/m 43.5 km/h
NW (6 Bft)
- 19.2 C 28.5 C
Durchschnitt _ 18.0 C 69 % 1019.3 hPa #20.4 l/m 4.7 km/h (1 Bft) NW 11.1 C 18.0 C

Durchschnitt Minimum Temp.17.1 C
Durchschnitt Maximum Temp.18.9 C
© Kaiko 2002